createdAt,value
2023-03-26T00:00:45.755Z,88.49
2023-03-26T00:03:13.095Z,88.59
2023-03-26T00:05:39.944Z,88.61
2023-03-26T00:08:08.998Z,88.78
2023-03-26T00:10:36.677Z,88.60
2023-03-26T00:13:04.462Z,88.87
2023-03-26T00:15:31.472Z,88.81
2023-03-26T00:17:58.094Z,88.97
2023-03-26T00:20:24.729Z,89.11
2023-03-26T00:22:51.176Z,89.20
2023-03-26T00:25:17.733Z,89.39
2023-03-26T00:27:45.663Z,89.45
2023-03-26T00:30:12.718Z,89.13
2023-03-26T00:32:39.348Z,89.42
2023-03-26T00:35:06.263Z,89.27
2023-03-26T00:37:33.921Z,89.22
2023-03-26T00:40:10.174Z,89.17
2023-03-26T00:42:38.455Z,89.02
2023-03-26T00:45:07.327Z,89.20
2023-03-26T00:47:34.651Z,89.39
2023-03-26T00:50:01.479Z,89.08
2023-03-26T00:52:28.853Z,89.45
2023-03-26T00:54:55.690Z,89.51
2023-03-26T00:57:34.602Z,89.37
2023-03-26T01:00:15.945Z,89.04
2023-03-26T01:02:45.259Z,88.64
2023-03-26T01:05:35.127Z,89.07
2023-03-26T01:08:18.102Z,89.16
2023-03-26T01:10:50.734Z,88.99
2023-03-26T01:13:23.105Z,89.47
2023-03-26T01:15:51.101Z,89.06
2023-03-26T01:18:21.115Z,89.20
2023-03-26T01:20:49.852Z,89.43
2023-03-26T01:23:23.918Z,89.42
2023-03-26T01:26:05.568Z,89.06
2023-03-26T01:28:35.390Z,89.29
2023-03-26T01:31:14.206Z,89.44
2023-03-26T01:33:49.114Z,89.38
2023-03-26T01:36:28.835Z,89.69
2023-03-26T01:39:18.653Z,89.63
2023-03-26T01:41:48.792Z,89.17
2023-03-26T01:44:30.810Z,89.35
2023-03-26T01:47:00.495Z,89.21
2023-03-26T01:49:29.045Z,88.79
2023-03-26T01:51:57.852Z,88.48
2023-03-26T01:54:28.382Z,87.61
2023-03-26T01:57:16.425Z,88.02
2023-03-26T02:00:11.256Z,87.69
2023-03-26T02:03:18.117Z,87.75
2023-03-26T02:05:48.204Z,86.93
2023-03-26T02:08:36.129Z,86.78
2023-03-26T02:11:11.554Z,86.72
2023-03-26T02:13:44.419Z,86.13
2023-03-26T02:16:16.171Z,86.21
2023-03-26T02:18:51.226Z,86.13
2023-03-26T02:21:20.247Z,85.79
2023-03-26T02:23:57.698Z,85.37
2023-03-26T02:26:25.196Z,85.16
2023-03-26T02:29:11.364Z,85.04
2023-03-26T02:31:40.670Z,84.72
2023-03-26T02:34:07.246Z,83.45
2023-03-26T02:36:36.849Z,83.55
2023-03-26T02:39:04.844Z,83.86
2023-03-26T02:41:34.934Z,83.42
2023-03-26T02:44:06.314Z,83.95
2023-03-26T02:46:53.362Z,83.89
2023-03-26T02:49:38.245Z,84.22
2023-03-26T02:52:06.545Z,84.42
2023-03-26T02:54:35.083Z,83.96
2023-03-26T02:57:15.538Z,84.56
2023-03-26T03:00:15.051Z,84.50
2023-03-26T03:02:48.273Z,84.06
2023-03-26T03:05:33.765Z,84.06
2023-03-26T03:08:12.320Z,84.47
2023-03-26T03:11:11.731Z,84.61
2023-03-26T03:13:48.058Z,84.98
2023-03-26T03:16:18.476Z,84.97
2023-03-26T03:18:45.127Z,84.55
2023-03-26T03:21:11.658Z,84.62
2023-03-26T03:23:38.398Z,84.71
2023-03-26T03:26:16.968Z,85.07
2023-03-26T03:28:50.835Z,85.09
2023-03-26T03:31:18.394Z,85.62
2023-03-26T03:33:46.384Z,85.49
2023-03-26T03:36:20.537Z,85.79
2023-03-26T03:38:53.830Z,85.91
2023-03-26T03:41:21.987Z,86.09
2023-03-26T03:43:48.838Z,85.47
2023-03-26T03:46:20.595Z,86.11
2023-03-26T03:48:49.815Z,85.57
2023-03-26T03:51:21.472Z,84.79
2023-03-26T03:53:51.035Z,84.51
2023-03-26T03:56:27.484Z,84.38
2023-03-26T03:59:12.589Z,84.15
2023-03-26T04:01:39.117Z,84.48
2023-03-26T04:04:13.170Z,84.17
2023-03-26T04:06:58.224Z,83.93
2023-03-26T04:09:29.179Z,83.24
2023-03-26T04:11:59.869Z,82.06
2023-03-26T04:14:35.907Z,81.59
2023-03-26T04:17:07.333Z,81.87
2023-03-26T04:19:37.524Z,80.88
2023-03-26T04:22:07.217Z,79.90
2023-03-26T04:24:42.278Z,80.28
2023-03-26T04:27:14.779Z,80.26
2023-03-26T04:29:43.709Z,80.76
2023-03-26T04:32:26.482Z,79.66
2023-03-26T04:34:54.520Z,78.93
2023-03-26T04:37:44.336Z,79.26
2023-03-26T04:40:20.484Z,78.83
2023-03-26T04:42:58.334Z,78.99
2023-03-26T04:45:48.226Z,78.61
2023-03-26T04:48:16.478Z,78.22
2023-03-26T04:50:45.156Z,79.13
2023-03-26T04:53:15.558Z,80.72
2023-03-26T04:56:27.729Z,81.40
2023-03-26T04:59:08.042Z,80.95
2023-03-26T05:01:40.122Z,80.74
2023-03-26T05:04:08.314Z,81.12
2023-03-26T05:06:35.058Z,80.91
2023-03-26T05:09:08.484Z,81.41
2023-03-26T05:12:01.183Z,81.78
2023-03-26T05:14:27.749Z,81.54
2023-03-26T05:16:54.724Z,81.38
2023-03-26T05:19:22.180Z,81.93
2023-03-26T05:21:48.629Z,81.37
2023-03-26T05:24:15.123Z,82.34
2023-03-26T05:26:41.651Z,82.42
2023-03-26T05:29:08.239Z,82.58
2023-03-26T05:31:40.336Z,82.27
2023-03-26T05:34:06.946Z,82.20
2023-03-26T05:36:33.724Z,81.88
2023-03-26T05:39:29.881Z,81.92
2023-03-26T05:42:14.704Z,81.94
2023-03-26T05:44:57.037Z,81.58
2023-03-26T05:47:27.389Z,81.56
2023-03-26T05:49:54.397Z,81.94
2023-03-26T05:52:21.016Z,81.21
2023-03-26T05:55:10.485Z,80.96
2023-03-26T05:57:55.457Z,81.74
2023-03-26T06:00:40.508Z,81.64
2023-03-26T06:03:12.604Z,81.13
2023-03-26T06:06:17.385Z,81.62
2023-03-26T06:09:01.766Z,81.62
2023-03-26T06:11:31.803Z,82.02
2023-03-26T06:14:00.385Z,81.44
2023-03-26T06:16:28.249Z,81.39
2023-03-26T06:19:15.760Z,81.17
2023-03-26T06:22:12.316Z,81.58
2023-03-26T06:25:05.206Z,81.42
2023-03-26T06:27:45.036Z,81.01
2023-03-26T06:30:46.982Z,81.61
2023-03-26T06:33:24.408Z,80.82
2023-03-26T06:35:51.401Z,79.94
2023-03-26T06:38:18.127Z,79.69
2023-03-26T06:40:44.849Z,79.61
2023-03-26T06:43:36.293Z,79.23
2023-03-26T06:46:03.720Z,77.78
2023-03-26T06:48:56.117Z,77.50
2023-03-26T06:51:41.395Z,77.65
2023-03-26T06:54:08.015Z,75.34
2023-03-26T06:56:49.164Z,74.96
2023-03-26T06:59:34.627Z,73.88
2023-03-26T07:02:20.087Z,70.65
2023-03-26T07:05:05.573Z,68.64
2023-03-26T07:07:58.237Z,69.17
2023-03-26T07:10:43.256Z,67.19
2023-03-26T07:13:17.340Z,67.36
2023-03-26T07:16:02.401Z,68.08
2023-03-26T07:18:49.466Z,67.49
2023-03-26T07:21:21.542Z,67.72
2023-03-26T07:23:48.730Z,65.74
2023-03-26T07:26:34.309Z,63.25
2023-03-26T07:29:21.795Z,63.91
2023-03-26T07:32:18.517Z,64.10
2023-03-26T07:35:20.334Z,63.69
2023-03-26T07:38:41.081Z,63.13
2023-03-26T07:41:44.773Z,63.37
2023-03-26T07:44:39.992Z,66.29
2023-03-26T07:47:31.448Z,64.55
2023-03-26T07:50:25.414Z,63.28
2023-03-26T07:53:09.387Z,63.63
2023-03-26T07:56:19.502Z,64.31
2023-03-26T07:59:11.890Z,65.91
2023-03-26T08:02:21.006Z,66.05
2023-03-26T08:05:19.672Z,66.78
2023-03-26T08:07:59.204Z,66.18
2023-03-26T08:10:43.032Z,65.28
2023-03-26T08:13:26.612Z,65.45
2023-03-26T08:16:19.339Z,64.82
2023-03-26T08:19:03.493Z,63.25
2023-03-26T08:21:54.626Z,63.44
2023-03-26T08:24:39.035Z,63.12
2023-03-26T08:27:18.603Z,62.80
2023-03-26T08:30:02.109Z,63.26
2023-03-26T08:32:29.386Z,63.14
2023-03-26T08:34:57.533Z,62.39
2023-03-26T08:37:24.100Z,62.93
2023-03-26T08:39:50.752Z,62.61
2023-03-26T08:42:26.600Z,63.33
2023-03-26T08:45:28.616Z,60.79
2023-03-26T08:48:24.426Z,60.86
2023-03-26T08:50:57.061Z,60.12
2023-03-26T08:53:55.090Z,63.54
2023-03-26T08:56:32.398Z,60.70
2023-03-26T08:59:26.923Z,60.34
2023-03-26T09:02:06.766Z,59.67
2023-03-26T09:04:52.073Z,60.23
2023-03-26T09:07:42.045Z,62.03
2023-03-26T09:10:36.425Z,58.02
2023-03-26T09:13:26.765Z,59.55
2023-03-26T09:16:11.431Z,57.83
2023-03-26T09:19:25.593Z,58.98
2023-03-26T09:22:04.300Z,55.50
2023-03-26T09:25:01.057Z,57.05
2023-03-26T09:28:20.553Z,57.22
2023-03-26T09:31:14.862Z,59.95
2023-03-26T09:34:18.861Z,61.05
2023-03-26T09:37:05.723Z,58.77
2023-03-26T09:39:46.798Z,58.81
2023-03-26T09:42:37.491Z,57.71
2023-03-26T09:45:24.060Z,60.90
2023-03-26T09:48:07.485Z,56.90
2023-03-26T09:50:52.488Z,55.91
2023-03-26T09:53:56.428Z,58.33
2023-03-26T09:56:32.728Z,56.34
2023-03-26T09:59:16.926Z,55.50
2023-03-26T10:02:12.137Z,54.79
2023-03-26T10:05:00.569Z,56.00
2023-03-26T10:07:51.700Z,56.11
2023-03-26T10:10:31.564Z,55.53
2023-03-26T10:13:14.462Z,54.48
2023-03-26T10:16:12.406Z,53.44
2023-03-26T10:19:05.265Z,53.27
2023-03-26T10:21:56.352Z,55.41
2023-03-26T10:24:44.715Z,56.10
2023-03-26T10:27:20.428Z,54.20
2023-03-26T10:30:05.851Z,53.13
2023-03-26T10:33:09.959Z,55.57
2023-03-26T10:35:50.736Z,54.94
2023-03-26T10:38:57.435Z,53.36
2023-03-26T10:41:51.184Z,55.51
2023-03-26T10:44:45.199Z,55.25
2023-03-26T10:47:26.981Z,57.55
2023-03-26T10:50:11.588Z,54.31
2023-03-26T10:52:46.716Z,56.69
2023-03-26T10:55:33.376Z,55.82
2023-03-26T10:58:03.013Z,54.97
2023-03-26T11:00:31.061Z,52.57
2023-03-26T11:03:18.196Z,54.81
2023-03-26T11:06:02.214Z,53.71
2023-03-26T11:08:44.072Z,51.80
2023-03-26T11:11:16.673Z,52.62
2023-03-26T11:13:53.725Z,51.60
2023-03-26T11:16:34.559Z,51.12
2023-03-26T11:19:16.494Z,49.96
2023-03-26T11:22:00.870Z,50.17
2023-03-26T11:25:09.630Z,50.98
2023-03-26T11:27:56.132Z,46.75
2023-03-26T11:30:43.916Z,47.16
2023-03-26T11:33:17.991Z,47.31
2023-03-26T11:35:51.144Z,45.90
2023-03-26T11:38:33.571Z,47.46
2023-03-26T11:41:02.756Z,47.66
2023-03-26T11:43:52.494Z,48.39
2023-03-26T11:46:22.748Z,51.29
2023-03-26T11:49:12.416Z,49.43
2023-03-26T11:51:41.267Z,47.86
2023-03-26T11:54:11.209Z,50.00
2023-03-26T11:57:04.597Z,49.87
2023-03-26T11:59:48.831Z,50.21
2023-03-26T12:02:33.923Z,49.51
2023-03-26T12:05:22.431Z,46.22
2023-03-26T12:07:53.079Z,48.05
2023-03-26T12:10:31.089Z,46.43
2023-03-26T12:13:06.417Z,45.57
2023-03-26T12:15:33.355Z,43.85
2023-03-26T12:18:22.993Z,43.76
2023-03-26T12:21:01.439Z,44.75
2023-03-26T12:24:01.396Z,43.07
2023-03-26T12:26:37.305Z,42.77
2023-03-26T12:29:10.406Z,42.81
2023-03-26T12:31:55.471Z,44.48
2023-03-26T12:34:31.656Z,47.88
2023-03-26T12:37:01.399Z,46.18
2023-03-26T12:40:07.208Z,42.93
2023-03-26T12:44:44.366Z,43.39
2023-03-26T12:45:24.144Z,42.54
2023-03-26T12:47:58.182Z,42.13
2023-03-26T12:50:40.787Z,43.76
2023-03-26T12:53:22.470Z,43.43
2023-03-26T12:56:00.214Z,44.56
2023-03-26T12:58:51.412Z,41.93
2023-03-26T13:01:23.672Z,42.29
2023-03-26T13:04:08.273Z,43.05
2023-03-26T13:07:04.336Z,44.14
2023-03-26T13:09:56.597Z,45.30
2023-03-26T13:12:48.887Z,41.74
2023-03-26T13:15:22.745Z,40.01
2023-03-26T13:18:02.220Z,41.22
2023-03-26T13:20:33.069Z,41.41
2023-03-26T13:23:27.137Z,40.89
2023-03-26T13:26:06.640Z,42.76
2023-03-26T13:28:53.960Z,41.11
2023-03-26T13:31:32.626Z,41.89
2023-03-26T13:34:09.887Z,42.97
2023-03-26T13:37:07.488Z,41.44
2023-03-26T13:39:57.041Z,40.78
2023-03-26T13:42:43.275Z,40.40
2023-03-26T13:45:34.432Z,40.12
2023-03-26T13:48:03.811Z,41.02
2023-03-26T13:50:35.413Z,38.83
2023-03-26T13:53:31.604Z,38.35
2023-03-26T13:56:00.263Z,40.65
2023-03-26T13:58:47.317Z,39.44
2023-03-26T14:01:19.461Z,40.93
2023-03-26T14:04:23.479Z,40.34
2023-03-26T14:07:01.314Z,41.74
2023-03-26T14:09:47.262Z,42.46
2023-03-26T14:12:37.313Z,43.67
2023-03-26T14:15:10.896Z,43.99
2023-03-26T14:17:46.381Z,44.54
2023-03-26T14:20:50.086Z,45.24
2023-03-26T14:23:52.958Z,45.48
2023-03-26T14:26:54.073Z,44.00
2023-03-26T14:29:58.389Z,44.91
2023-03-26T14:32:51.558Z,45.98
2023-03-26T14:35:31.700Z,47.46
2023-03-26T14:38:03.958Z,46.21
2023-03-26T14:40:35.776Z,46.70
2023-03-26T14:43:27.187Z,45.97
2023-03-26T14:46:21.167Z,46.78
2023-03-26T14:49:09.727Z,48.63
2023-03-26T14:51:59.272Z,48.97
2023-03-26T14:54:33.386Z,49.15
2023-03-26T14:57:28.888Z,48.35
2023-03-26T15:00:29.225Z,47.01
2023-03-26T15:03:29.666Z,47.37
2023-03-26T15:06:17.805Z,48.24
2023-03-26T15:08:58.595Z,48.09
2023-03-26T15:11:45.280Z,48.08
2023-03-26T15:14:26.867Z,50.35
2023-03-26T15:17:31.850Z,49.34
2023-03-26T15:20:35.914Z,49.83
2023-03-26T15:23:47.297Z,49.18
2023-03-26T15:26:50.977Z,49.40
2023-03-26T15:29:52.654Z,45.64
2023-03-26T15:32:57.017Z,46.48
2023-03-26T15:35:48.650Z,45.16
2023-03-26T15:38:42.940Z,46.26
2023-03-26T15:41:19.328Z,45.61
2023-03-26T15:46:46.466Z,45.78
2023-03-26T15:49:39.741Z,45.67
2023-03-26T15:52:19.517Z,45.21
2023-03-26T15:55:09.429Z,45.09
2023-03-26T15:57:46.811Z,42.82
2023-03-26T16:00:23.301Z,43.45
2023-03-26T16:02:53.561Z,44.54
2023-03-26T16:05:47.596Z,45.62
2023-03-26T16:08:39.140Z,45.19
2023-03-26T16:11:12.365Z,46.44
2023-03-26T16:14:12.684Z,45.80
2023-03-26T16:16:52.713Z,47.42
2023-03-26T16:19:19.326Z,46.52
2023-03-26T16:22:00.222Z,47.19
2023-03-26T16:24:30.605Z,48.97
2023-03-26T16:27:07.873Z,48.99
2023-03-26T16:30:00.511Z,49.75
2023-03-26T16:32:28.816Z,48.55
2023-03-26T16:35:14.188Z,48.14
2023-03-26T16:38:04.629Z,48.63
2023-03-26T16:40:59.971Z,49.20
2023-03-26T16:43:43.619Z,48.48
2023-03-26T16:46:26.214Z,49.59
2023-03-26T16:49:17.093Z,49.58
2023-03-26T16:52:14.799Z,51.51
2023-03-26T16:55:02.219Z,51.55
2023-03-26T16:57:41.235Z,52.39
2023-03-26T17:00:16.332Z,53.13
2023-03-26T17:03:15.825Z,54.67
2023-03-26T17:05:56.331Z,55.02
2023-03-26T17:08:42.501Z,54.06
2023-03-26T17:11:23.679Z,55.14
2023-03-26T17:14:07.770Z,55.29
2023-03-26T17:16:50.341Z,56.38
2023-03-26T17:19:39.349Z,56.51
2023-03-26T17:22:23.680Z,57.21
2023-03-26T17:25:25.000Z,57.57
2023-03-26T17:28:14.647Z,58.36
2023-03-26T17:30:50.459Z,59.64
2023-03-26T17:33:26.905Z,59.57
2023-03-26T17:36:11.719Z,60.50
2023-03-26T17:38:45.505Z,60.63
2023-03-26T17:41:15.813Z,61.37
2023-03-26T17:43:50.139Z,62.78
2023-03-26T17:46:41.989Z,62.77
2023-03-26T17:49:17.900Z,62.54
2023-03-26T17:52:16.953Z,63.70
2023-03-26T17:54:49.913Z,62.62
2023-03-26T17:57:22.469Z,64.47
2023-03-26T17:59:52.996Z,64.52
2023-03-26T18:02:24.575Z,65.24
2023-03-26T18:04:55.432Z,64.56
2023-03-26T18:07:46.341Z,64.72
2023-03-26T18:10:33.101Z,65.31
2023-03-26T18:13:46.949Z,64.54
2023-03-26T18:16:17.124Z,65.05
2023-03-26T18:18:59.153Z,64.39
2023-03-26T18:21:36.396Z,64.80
2023-03-26T18:24:06.193Z,63.71
2023-03-26T18:26:42.477Z,63.14
2023-03-26T18:29:29.358Z,63.96
2023-03-26T18:32:01.062Z,63.95
2023-03-26T18:34:33.062Z,63.57
2023-03-26T18:37:14.925Z,63.62
2023-03-26T18:40:02.062Z,63.36
2023-03-26T18:42:31.621Z,63.35
2023-03-26T18:45:04.661Z,63.32
2023-03-26T18:47:32.007Z,63.12
2023-03-26T18:49:59.685Z,63.07
2023-03-26T18:52:28.694Z,63.42
2023-03-26T18:54:56.819Z,62.48
2023-03-26T18:57:26.346Z,62.42
2023-03-26T18:59:55.930Z,62.37
2023-03-26T19:02:24.347Z,63.37
2023-03-26T19:04:54.163Z,62.11
2023-03-26T19:07:24.385Z,61.44
2023-03-26T19:09:56.143Z,61.92
2023-03-26T19:12:29.293Z,61.66
2023-03-26T19:15:21.712Z,62.36
2023-03-26T19:17:53.255Z,61.08
2023-03-26T19:20:27.260Z,61.65
2023-03-26T19:22:55.210Z,60.27
2023-03-26T19:25:25.471Z,59.98
2023-03-26T19:27:52.411Z,60.48
2023-03-26T19:30:29.340Z,59.78
2023-03-26T19:33:13.169Z,58.98
2023-03-26T19:35:42.122Z,59.46
2023-03-26T19:38:23.138Z,58.20
2023-03-26T19:40:52.309Z,58.31
2023-03-26T19:43:19.220Z,58.29
2023-03-26T19:46:00.564Z,57.65
2023-03-26T19:48:45.953Z,57.45
2023-03-26T19:51:26.083Z,58.48
2023-03-26T19:53:55.365Z,57.01
2023-03-26T19:56:22.718Z,58.13
2023-03-26T19:58:52.618Z,58.07
2023-03-26T20:01:23.547Z,58.03
2023-03-26T20:03:59.906Z,58.03
2023-03-26T20:06:42.477Z,57.05
2023-03-26T20:09:17.884Z,58.24
2023-03-26T20:11:44.472Z,58.48
2023-03-26T20:14:16.790Z,57.93
2023-03-26T20:16:45.399Z,57.83
2023-03-26T20:19:14.224Z,57.58
2023-03-26T20:21:41.654Z,57.44
2023-03-26T20:24:16.319Z,57.49
2023-03-26T20:26:43.674Z,57.59
2023-03-26T20:29:11.619Z,57.19
2023-03-26T20:31:39.822Z,57.66
2023-03-26T20:34:10.018Z,57.09
2023-03-26T20:36:36.870Z,58.26
2023-03-26T20:39:07.656Z,58.60
2023-03-26T20:41:34.959Z,58.58
2023-03-26T20:44:03.589Z,58.55
2023-03-26T20:46:31.647Z,58.92
2023-03-26T20:48:59.478Z,59.40
2023-03-26T20:51:28.297Z,59.52
2023-03-26T20:53:55.986Z,58.79
2023-03-26T20:56:22.723Z,59.01
2023-03-26T20:59:09.870Z,59.02
2023-03-26T21:01:38.233Z,59.42
2023-03-26T21:04:05.476Z,58.32
2023-03-26T21:06:32.105Z,59.91
2023-03-26T21:08:58.876Z,59.98
2023-03-26T21:11:35.769Z,58.85
2023-03-26T21:14:18.427Z,59.56
2023-03-26T21:16:45.300Z,60.53
2023-03-26T21:19:12.297Z,60.70
2023-03-26T21:21:56.065Z,60.58
2023-03-26T21:24:29.682Z,60.35
2023-03-26T21:27:12.561Z,60.01
2023-03-26T21:29:39.328Z,59.94
2023-03-26T21:32:06.132Z,59.44
2023-03-26T21:34:33.591Z,60.27
2023-03-26T21:37:01.400Z,60.96
2023-03-26T21:39:28.881Z,60.00
2023-03-26T21:42:04.720Z,59.89
2023-03-26T21:44:33.613Z,59.63
2023-03-26T21:47:00.632Z,60.84
2023-03-26T21:49:27.737Z,59.38
2023-03-26T21:51:54.394Z,59.58
2023-03-26T21:54:27.976Z,58.91
2023-03-26T21:57:15.378Z,59.33
2023-03-26T21:59:47.281Z,59.43
2023-03-26T22:02:39.581Z,59.75
2023-03-26T22:05:14.465Z,60.92
2023-03-26T22:07:55.992Z,60.43
2023-03-26T22:10:23.256Z,60.28
2023-03-26T22:12:50.200Z,60.64
2023-03-26T22:15:19.244Z,60.44
2023-03-26T22:17:53.786Z,60.22
2023-03-26T22:20:24.304Z,61.77
2023-03-26T22:22:53.043Z,61.29
2023-03-26T22:25:21.565Z,61.07
2023-03-26T22:27:49.255Z,61.46
2023-03-26T22:30:16.657Z,61.96
2023-03-26T22:32:43.427Z,61.89
2023-03-26T22:35:10.486Z,61.19
2023-03-26T22:37:37.222Z,60.37
2023-03-26T22:40:08.208Z,61.21
2023-03-26T22:42:37.686Z,61.29
2023-03-26T22:45:04.821Z,62.34
2023-03-26T22:47:33.732Z,61.21
2023-03-26T22:50:00.597Z,62.02
2023-03-26T22:52:27.828Z,62.00
2023-03-26T22:54:54.817Z,62.53
2023-03-26T22:57:24.334Z,62.83
2023-03-26T22:59:51.865Z,62.58
2023-03-26T23:02:19.266Z,62.62
2023-03-26T23:04:47.710Z,62.93
2023-03-26T23:07:14.891Z,63.19
2023-03-26T23:09:41.546Z,62.89
2023-03-26T23:12:08.103Z,63.35
2023-03-26T23:14:34.501Z,63.94
2023-03-26T23:17:01.529Z,63.40
2023-03-26T23:19:29.857Z,64.06
2023-03-26T23:21:57.550Z,63.82
2023-03-26T23:24:26.337Z,64.28
2023-03-26T23:26:53.210Z,64.42
2023-03-26T23:29:21.021Z,65.33
2023-03-26T23:31:47.929Z,65.88
2023-03-26T23:34:16.198Z,66.75
2023-03-26T23:36:44.730Z,66.88
2023-03-26T23:39:11.250Z,67.17
2023-03-26T23:41:37.994Z,67.44
2023-03-26T23:44:04.505Z,67.00
2023-03-26T23:46:34.746Z,66.62
2023-03-26T23:49:04.916Z,67.18
2023-03-26T23:51:32.080Z,67.07
2023-03-26T23:53:59.671Z,67.75
2023-03-26T23:56:27.820Z,68.02
2023-03-26T23:58:55.076Z,68.29
